Time;durP1;ratioP1;P1;durP2;ratioP2;P2;SDS_P1;SDS_P2;PMS_P1;PMS_P2;Temp;Humidity;BMP_temperature;BMP_pressure;BME280_temperature;BME280_humidity;BME280_pressure;Samples;Min_cycle;Max_cycle;Signal;HPM_P1;HPM_P2
2022/04/09 00:01:16;;;;;;;0.60;0.60;;;;;;;;;;5001498;28;20042;-67
2022/04/09 00:03:43;;;;;;;0.60;0.50;;;;;;;;;;5006348;28;20049;-67
2022/04/09 00:06:10;;;;;;;1.60;0.65;;;;;;;;;;5004832;28;20048;-67
2022/04/09 00:08:37;;;;;;;0.68;0.50;;;;;;;;;;5013328;28;20054;-67
2022/04/09 00:11:03;;;;;;;0.40;0.40;;;;;;;;;;5013560;28;20270;-67
2022/04/09 00:13:30;;;;;;;0.77;0.63;;;;;;;;;;4996317;28;20072;-67
2022/04/09 00:15:57;;;;;;;2.90;0.70;;;;;;;;;;5004263;28;20081;-68
2022/04/09 00:18:23;;;;;;;0.80;0.80;;;;;;;;;;5007551;28;20041;-68
2022/04/09 00:20:50;;;;;;;0.73;0.73;;;;;;;;;;5012045;28;20061;-67
2022/04/09 00:23:18;;;;;;;1.10;1.00;;;;;;;;;;5013639;28;20057;-67
2022/04/09 00:25:46;;;;;;;1.08;0.98;;;;;;;;;;5013480;28;20420;-67
2022/04/09 00:28:12;;;;;;;1.42;1.25;;;;;;;;;;4996073;28;20050;-67
2022/04/09 00:30:39;;;;;;;1.65;1.30;;;;;;;;;;5013042;28;20065;-65
2022/04/09 00:33:06;;;;;;;1.63;1.52;;;;;;;;;;5013388;28;20050;-67
2022/04/09 00:35:33;;;;;;;2.40;1.52;;;;;;;;;;4995526;28;20085;-66
2022/04/09 00:38:00;;;;;;;1.50;1.40;;;;;;;;;;5011914;28;20142;-66
2022/04/09 00:40:26;;;;;;;2.15;1.70;;;;;;;;;;5012909;28;20056;-68
2022/04/09 00:42:53;;;;;;;2.10;1.70;;;;;;;;;;5010812;28;20054;-67
2022/04/09 00:45:20;;;;;;;1.80;1.50;;;;;;;;;;4995583;28;20060;-66
2022/04/09 00:47:47;;;;;;;1.70;1.40;;;;;;;;;;5013258;28;20053;-67
2022/04/09 00:50:14;;;;;;;2.20;1.70;;;;;;;;;;4995492;28;20049;-67
2022/04/09 00:52:47;;;;;;;2.33;1.83;;;;;;;;;;4995713;28;20249;-67
2022/04/09 00:55:17;;;;;;;4.75;3.22;;;;;;;;;;4996101;28;20084;-67
2022/04/09 00:57:45;;;;;;;5.60;3.60;;;;;;;;;;5011532;28;20053;-67
2022/04/09 01:00:12;;;;;;;8.13;4.53;;;;;;;;;;5011694;28;20096;-67
2022/04/09 01:02:41;;;;;;;9.88;5.35;;;;;;;;;;5011490;28;20472;-67
2022/04/09 01:05:08;;;;;;;7.45;5.63;;;;;;;;;;5011552;28;20140;-67
2022/04/09 01:07:36;;;;;;;6.07;3.78;;;;;;;;;;4995139;28;20077;-67
2022/04/09 01:10:04;;;;;;;4.03;3.10;;;;;;;;;;5010725;28;20120;-67
2022/04/09 01:12:33;;;;;;;3.70;2.92;;;;;;;;;;5011431;28;20050;-68
2022/04/09 01:15:03;;;;;;;5.10;3.38;;;;;;;;;;4995272;28;20066;-67
2022/04/09 01:17:29;;;;;;;4.07;2.80;;;;;;;;;;5011181;28;20049;-68
2022/04/09 01:19:56;;;;;;;4.32;3.45;;;;;;;;;;4978890;28;20177;-67
2022/04/09 01:22:23;;;;;;;3.70;2.88;;;;;;;;;;5010978;28;20049;-67
2022/04/09 01:24:49;;;;;;;5.25;3.53;;;;;;;;;;5012265;28;20058;-68
2022/04/09 01:27:16;;;;;;;5.65;4.15;;;;;;;;;;5012462;28;20424;-67
2022/04/09 01:29:43;;;;;;;6.38;4.00;;;;;;;;;;5011026;28;20049;-67
2022/04/09 01:32:10;;;;;;;6.78;4.05;;;;;;;;;;5010698;28;20049;-67
2022/04/09 01:34:38;;;;;;;6.43;3.80;;;;;;;;;;4994795;28;20053;-67
2022/04/09 01:37:05;;;;;;;7.88;4.10;;;;;;;;;;5010792;28;20489;-66
2022/04/09 01:39:32;;;;;;;6.57;4.22;;;;;;;;;;5010786;28;20135;-66
2022/04/09 01:41:58;;;;;;;7.60;4.13;;;;;;;;;;5011986;28;20058;-66
2022/04/09 01:44:25;;;;;;;7.80;4.45;;;;;;;;;;5012285;28;20057;-67
2022/04/09 01:46:51;;;;;;;6.50;4.45;;;;;;;;;;5011999;28;20050;-66
2022/04/09 01:49:18;;;;;;;8.30;5.13;;;;;;;;;;5010734;28;20212;-67
2022/04/09 01:51:48;;;;;;;9.55;5.32;;;;;;;;;;5011629;28;20489;-67
2022/04/09 01:54:15;;;;;;;9.65;5.68;;;;;;;;;;5010611;28;20054;-67
2022/04/09 01:56:41;;;;;;;8.65;5.63;;;;;;;;;;5010933;28;20076;-67
2022/04/09 01:59:08;;;;;;;8.77;5.63;;;;;;;;;;5010541;28;20145;-67
2022/04/09 02:01:35;;;;;;;10.25;6.00;;;;;;;;;;5011548;28;20050;-67
2022/04/09 02:04:02;;;;;;;8.98;5.63;;;;;;;;;;5010817;28;20053;-67
2022/04/09 02:06:29;;;;;;;11.05;5.47;;;;;;;;;;5010825;28;20068;-68
2022/04/09 02:08:55;;;;;;;11.65;6.38;;;;;;;;;;5011821;28;20054;-66
2022/04/09 02:11:23;;;;;;;10.20;5.75;;;;;;;;;;5011762;28;20049;-67
2022/04/09 02:13:51;;;;;;;7.70;4.85;;;;;;;;;;5011860;28;20061;-67
2022/04/09 02:16:18;;;;;;;10.82;5.53;;;;;;;;;;5011969;28;20053;-68
2022/04/09 02:18:44;;;;;;;9.35;5.47;;;;;;;;;;4994390;28;20060;-66
2022/04/09 02:21:11;;;;;;;11.90;5.78;;;;;;;;;;5010249;28;20456;-68
2022/04/09 02:23:38;;;;;;;9.27;5.53;;;;;;;;;;5010671;28;20096;-67
2022/04/09 02:26:04;;;;;;;14.10;6.47;;;;;;;;;;5010585;28;20061;-66
2022/04/09 02:28:32;;;;;;;9.65;5.85;;;;;;;;;;4994265;28;20508;-66
2022/04/09 02:30:59;;;;;;;10.63;6.03;;;;;;;;;;5011428;28;20046;-67
2022/04/09 02:33:26;;;;;;;12.30;7.38;;;;;;;;;;5010539;28;20057;-66
2022/04/09 02:35:52;;;;;;;10.73;6.78;;;;;;;;;;5011838;28;20050;-67
2022/04/09 02:38:19;;;;;;;11.43;6.30;;;;;;;;;;5009700;28;20053;-67
2022/04/09 02:40:46;;;;;;;9.23;5.75;;;;;;;;;;5011935;28;20082;-67
2022/04/09 02:43:12;;;;;;;10.30;6.38;;;;;;;;;;5011442;28;20050;-66
2022/04/09 02:45:39;;;;;;;11.55;6.57;;;;;;;;;;5011508;28;20050;-66
2022/04/09 02:48:05;;;;;;;13.15;6.28;;;;;;;;;;5010224;28;20056;-68
2022/04/09 02:50:32;;;;;;;12.07;6.85;;;;;;;;;;5011581;28;20460;-67
2022/04/09 02:52:59;;;;;;;11.38;6.20;;;;;;;;;;5011469;28;20046;-66
2022/04/09 02:55:25;;;;;;;10.68;6.22;;;;;;;;;;5011309;28;20049;-66
2022/04/09 02:57:52;;;;;;;10.70;6.80;;;;;;;;;;5011377;28;20046;-66
2022/04/09 03:00:19;;;;;;;15.45;6.90;;;;;;;;;;5011343;28;20041;-66
2022/04/09 03:02:45;;;;;;;11.38;6.93;;;;;;;;;;5011135;28;20053;-66
2022/04/09 03:05:13;;;;;;;11.10;6.55;;;;;;;;;;5011123;28;20571;-67
2022/04/09 03:07:40;;;;;;;9.70;6.43;;;;;;;;;;5013855;28;20456;-66
2022/04/09 03:10:07;;;;;;;11.05;6.65;;;;;;;;;;5013503;28;20046;-66
2022/04/09 03:12:34;;;;;;;11.80;7.00;;;;;;;;;;5014940;28;20103;-66
2022/04/09 03:15:00;;;;;;;10.77;7.45;;;;;;;;;;5013444;28;20054;-67
2022/04/09 03:17:27;;;;;;;10.07;6.88;;;;;;;;;;5013581;28;20424;-67
2022/04/09 03:19:54;;;;;;;8.60;6.25;;;;;;;;;;5013296;28;20501;-66
2022/04/09 03:22:22;;;;;;;11.07;6.35;;;;;;;;;;5014584;28;20061;-67
2022/04/09 03:24:48;;;;;;;9.40;6.60;;;;;;;;;;5014490;28;20050;-68
2022/04/09 03:27:15;;;;;;;10.18;6.57;;;;;;;;;;5014802;28;20061;-66
2022/04/09 03:29:42;;;;;;;8.23;5.72;;;;;;;;;;5014301;28;20496;-66
2022/04/09 03:32:09;;;;;;;8.82;6.70;;;;;;;;;;5014271;28;20046;-66
2022/04/09 03:34:36;;;;;;;9.63;6.38;;;;;;;;;;5013110;28;20136;-66
2022/04/09 03:37:02;;;;;;;9.23;6.25;;;;;;;;;;5013259;28;20057;-66
2022/04/09 03:39:30;;;;;;;8.57;6.80;;;;;;;;;;4996610;28;20057;-66
2022/04/09 03:41:57;;;;;;;11.75;7.28;;;;;;;;;;4996760;28;20049;-67
2022/04/09 03:44:43;;;;;;;10.85;7.13;;;;;;;;;;5013148;28;20472;-67
2022/04/09 03:47:10;;;;;;;9.65;6.97;;;;;;;;;;5014417;28;20053;-67
2022/04/09 03:49:37;;;;;;;9.20;6.97;;;;;;;;;;5012696;28;20050;-66
2022/04/09 03:52:04;;;;;;;10.20;6.90;;;;;;;;;;5014129;28;20413;-67
2022/04/09 03:54:32;;;;;;;8.98;6.93;;;;;;;;;;5012928;28;20053;-66
2022/04/09 03:56:58;;;;;;;10.85;7.35;;;;;;;;;;5014041;28;20537;-66
2022/04/09 03:59:25;;;;;;;13.10;8.48;;;;;;;;;;5013917;28;20050;-65
2022/04/09 04:01:52;;;;;;;12.57;9.18;;;;;;;;;;5012420;28;20053;-67
2022/04/09 04:04:19;;;;;;;12.63;9.18;;;;;;;;;;5013678;28;20267;-65
2022/04/09 04:06:46;;;;;;;14.90;9.55;;;;;;;;;;5013770;28;20049;-66
2022/04/09 04:09:14;;;;;;;15.57;9.82;;;;;;;;;;5012578;28;20057;-66
2022/04/09 04:11:41;;;;;;;13.98;10.07;;;;;;;;;;5012233;28;20050;-66
2022/04/09 04:14:08;;;;;;;17.80;10.30;;;;;;;;;;5013553;28;20045;-66
2022/04/09 04:16:35;;;;;;;17.10;10.75;;;;;;;;;;5012589;28;20049;-66
2022/04/09 04:19:02;;;;;;;15.52;10.48;;;;;;;;;;5013453;28;20076;-66
2022/04/09 04:21:28;;;;;;;16.42;9.90;;;;;;;;;;5013323;28;20501;-66
2022/04/09 04:23:55;;;;;;;17.67;11.45;;;;;;;;;;5013245;28;20056;-66
2022/04/09 04:26:22;;;;;;;20.27;11.75;;;;;;;;;;5011883;28;20070;-66
2022/04/09 04:28:51;;;;;;;20.50;12.00;;;;;;;;;;4996372;28;20046;-65
2022/04/09 04:31:18;;;;;;;21.40;12.60;;;;;;;;;;5013118;28;20050;-65
2022/04/09 04:33:45;;;;;;;23.85;13.80;;;;;;;;;;5012095;28;20061;-66
2022/04/09 04:36:12;;;;;;;25.50;14.70;;;;;;;;;;5013371;28;20046;-66
2022/04/09 04:38:39;;;;;;;23.90;14.15;;;;;;;;;;5011673;28;20061;-66
2022/04/09 04:41:06;;;;;;;31.27;15.52;;;;;;;;;;4995546;28;20520;-66
2022/04/09 04:43:33;;;;;;;23.00;14.07;;;;;;;;;;5013160;28;20049;-66
2022/04/09 04:45:59;;;;;;;25.40;13.73;;;;;;;;;;5011937;28;20390;-66
2022/04/09 04:48:26;;;;;;;22.45;14.27;;;;;;;;;;5011727;28;20104;-66
2022/04/09 04:50:52;;;;;;;27.02;14.13;;;;;;;;;;5011451;28;20401;-67
2022/04/09 04:53:19;;;;;;;26.35;14.85;;;;;;;;;;5013012;28;20057;-66
2022/04/09 04:55:46;;;;;;;26.58;14.82;;;;;;;;;;5011786;28;20050;-66
2022/04/09 04:58:12;;;;;;;25.50;15.70;;;;;;;;;;5012975;28;20053;-66
2022/04/09 05:00:39;;;;;;;28.83;14.55;;;;;;;;;;5012752;28;20058;-67
2022/04/09 05:03:06;;;;;;;28.65;14.50;;;;;;;;;;5012681;28;20049;-66
2022/04/09 05:05:33;;;;;;;22.63;14.60;;;;;;;;;;5011485;28;20058;-69
2022/04/09 05:08:00;;;;;;;27.92;14.10;;;;;;;;;;5012799;28;20046;-66
2022/04/09 05:10:27;;;;;;;24.13;13.70;;;;;;;;;;5012816;28;20099;-66
2022/04/09 05:12:54;;;;;;;20.60;12.82;;;;;;;;;;5012408;28;20054;-66
2022/04/09 05:15:21;;;;;;;25.95;13.55;;;;;;;;;;5011683;28;20058;-66
2022/04/09 05:17:48;;;;;;;23.20;13.13;;;;;;;;;;4995164;28;20053;-66
2022/04/09 05:20:15;;;;;;;25.65;13.35;;;;;;;;;;5011161;28;20045;-66
2022/04/09 05:22:46;;;;;;;24.05;13.80;;;;;;;;;;4994709;28;20046;-66
2022/04/09 05:25:18;;;;;;;;;;;;;;;;;;5011705;28;20081;-66
2022/04/09 05:27:45;;;;;;;25.75;14.18;;;;;;;;;;5012341;28;19927;-66
2022/04/09 05:30:12;;;;;;;23.88;13.00;;;;;;;;;;4994358;28;20100;-67
2022/04/09 05:32:39;;;;;;;25.80;14.68;;;;;;;;;;5010671;28;20050;-66
2022/04/09 05:35:07;;;;;;;22.77;14.77;;;;;;;;;;5011240;28;20060;-68
2022/04/09 05:37:34;;;;;;;23.77;14.07;;;;;;;;;;4994874;28;20417;-67
2022/04/09 05:40:00;;;;;;;20.58;13.75;;;;;;;;;;5010898;28;20420;-67
2022/04/09 05:42:27;;;;;;;21.92;12.75;;;;;;;;;;4994906;28;20109;-67
2022/04/09 05:44:54;;;;;;;28.80;13.05;;;;;;;;;;5010719;28;20053;-66
2022/04/09 05:47:20;;;;;;;24.30;13.63;;;;;;;;;;5012027;28;20072;-66
2022/04/09 05:49:47;;;;;;;26.77;14.40;;;;;;;;;;4994429;28;20054;-65
2022/04/09 05:52:14;;;;;;;26.95;15.52;;;;;;;;;;5011201;28;20053;-66
2022/04/09 05:54:40;;;;;;;25.58;14.98;;;;;;;;;;5008637;28;20412;-67
2022/04/09 05:57:07;;;;;;;25.00;15.13;;;;;;;;;;5009975;28;20064;-67
2022/04/09 05:59:34;;;;;;;25.38;13.52;;;;;;;;;;5008572;28;20064;-65
2022/04/09 06:02:00;;;;;;;20.48;13.07;;;;;;;;;;5009678;28;20053;-67
2022/04/09 06:04:28;;;;;;;27.08;13.95;;;;;;;;;;4976713;28;20061;-66
2022/04/09 06:06:55;;;;;;;21.15;13.48;;;;;;;;;;5008191;28;20056;-68
2022/04/09 06:09:22;;;;;;;19.05;13.35;;;;;;;;;;5008627;28;20485;-66
2022/04/09 06:11:48;;;;;;;25.20;15.20;;;;;;;;;;5008334;28;20054;-67
2022/04/09 06:14:16;;;;;;;21.42;14.48;;;;;;;;;;5008459;28;20085;-66
2022/04/09 06:16:44;;;;;;;23.85;14.35;;;;;;;;;;5010062;28;20448;-66
2022/04/09 06:19:11;;;;;;;18.52;12.85;;;;;;;;;;5007947;28;20054;-66
2022/04/09 06:21:38;;;;;;;21.52;13.50;;;;;;;;;;5008456;28;20128;-67
2022/04/09 06:24:05;;;;;;;15.75;11.77;;;;;;;;;;5009650;28;20049;-66
2022/04/09 06:26:31;;;;;;;18.83;12.77;;;;;;;;;;5009736;28;20050;-66
2022/04/09 06:28:58;;;;;;;18.05;13.45;;;;;;;;;;5008394;28;20073;-67
2022/04/09 06:31:25;;;;;;;19.98;12.38;;;;;;;;;;5009385;28;20050;-66
2022/04/09 06:33:53;;;;;;;19.83;13.05;;;;;;;;;;5008339;28;20507;-66
2022/04/09 06:36:20;;;;;;;19.70;13.68;;;;;;;;;;5008428;28;20046;-67
2022/04/09 06:38:46;;;;;;;18.58;11.32;;;;;;;;;;5008320;28;20054;-66
2022/04/09 06:41:14;;;;;;;16.20;11.05;;;;;;;;;;5009612;28;20050;-70
2022/04/09 06:43:41;;;;;;;20.00;11.90;;;;;;;;;;5011988;28;20054;-67
2022/04/09 06:46:07;;;;;;;23.23;12.20;;;;;;;;;;5011537;28;20531;-67
2022/04/09 06:48:34;;;;;;;13.65;10.02;;;;;;;;;;5013209;28;20060;-66
2022/04/09 06:51:01;;;;;;;17.63;10.93;;;;;;;;;;5011746;28;20060;-66
2022/04/09 06:53:28;;;;;;;15.70;10.68;;;;;;;;;;5011884;28;20069;-66
2022/04/09 06:55:54;;;;;;;13.98;10.82;;;;;;;;;;5013379;28;20058;-64
2022/04/09 06:58:21;;;;;;;14.65;10.50;;;;;;;;;;5012645;28;20058;-65
2022/04/09 07:00:48;;;;;;;18.42;11.50;;;;;;;;;;5011793;28;20073;-66
2022/04/09 07:03:14;;;;;;;16.77;9.43;;;;;;;;;;5012825;28;20103;-66
2022/04/09 07:05:41;;;;;;;12.52;8.38;;;;;;;;;;5011916;28;20457;-64
2022/04/09 07:08:08;;;;;;;15.80;8.82;;;;;;;;;;5013027;28;20060;-65
2022/04/09 07:10:39;;;;;;;17.60;10.55;;;;;;;;;;4994983;28;20060;-64
2022/04/09 07:13:09;;;;;;;17.83;11.00;;;;;;;;;;4987663;28;20133;-68
2022/04/09 07:15:36;;;;;;;19.45;11.10;;;;;;;;;;4976456;28;20141;-69
2022/04/09 07:18:02;;;;;;;16.00;8.60;;;;;;;;;;4991441;28;20058;-69
2022/04/09 07:20:30;;;;;;;16.77;9.68;;;;;;;;;;4993023;28;20050;-70
2022/04/09 07:22:56;;;;;;;17.20;8.95;;;;;;;;;;4993320;28;20149;-66
2022/04/09 07:25:23;;;;;;;10.55;8.52;;;;;;;;;;4992037;28;20519;-67
2022/04/09 07:27:50;;;;;;;14.02;9.57;;;;;;;;;;5002085;28;20045;-65
2022/04/09 07:30:18;;;;;;;17.50;9.70;;;;;;;;;;4998680;28;20054;-65
2022/04/09 07:32:47;;;;;;;11.60;8.27;;;;;;;;;;5002028;28;20042;-69
2022/04/09 07:35:14;;;;;;;13.73;7.22;;;;;;;;;;4999241;28;20054;-66
2022/04/09 07:37:45;;;;;;;12.38;7.93;;;;;;;;;;5016535;28;20081;-67
2022/04/09 07:40:13;;;;;;;11.57;7.03;;;;;;;;;;4998115;28;20046;-67
2022/04/09 07:42:41;;;;;;;10.82;6.72;;;;;;;;;;5018848;28;20422;-67
2022/04/09 07:45:08;;;;;;;11.43;7.05;;;;;;;;;;5005378;28;20425;-68
2022/04/09 07:47:35;;;;;;;9.63;6.32;;;;;;;;;;5017572;28;20096;-70
2022/04/09 07:50:05;;;;;;;7.50;5.97;;;;;;;;;;4984441;28;20054;-68
2022/04/09 07:52:31;;;;;;;10.70;5.75;;;;;;;;;;5013833;28;20047;-69
2022/04/09 07:54:58;;;;;;;8.80;5.65;;;;;;;;;;5000088;28;20127;-68
2022/04/09 07:57:25;;;;;;;7.13;5.40;;;;;;;;;;5003490;28;20049;-65
2022/04/09 07:59:53;;;;;;;9.38;5.55;;;;;;;;;;5000486;28;20064;-66
2022/04/09 08:02:20;;;;;;;9.45;4.72;;;;;;;;;;4999827;28;20038;-65
2022/04/09 08:04:47;;;;;;;9.30;5.35;;;;;;;;;;4999691;28;20077;-65
2022/04/09 08:07:13;;;;;;;8.02;4.78;;;;;;;;;;5002093;28;20050;-65
2022/04/09 08:09:40;;;;;;;8.38;4.57;;;;;;;;;;5002360;28;20050;-65
2022/04/09 08:12:07;;;;;;;9.23;4.90;;;;;;;;;;5001804;28;20046;-65
2022/04/09 08:14:34;;;;;;;12.68;4.68;;;;;;;;;;5000995;28;20054;-66
2022/04/09 08:17:00;;;;;;;8.80;4.80;;;;;;;;;;5015107;28;20046;-65
2022/04/09 08:19:27;;;;;;;7.70;5.47;;;;;;;;;;5000244;28;20061;-65
2022/04/09 08:21:55;;;;;;;9.48;5.68;;;;;;;;;;5002733;28;20046;-65
2022/04/09 08:24:22;;;;;;;9.65;4.97;;;;;;;;;;5000637;28;20533;-65
2022/04/09 08:26:48;;;;;;;9.20;4.32;;;;;;;;;;5001208;28;20077;-66
2022/04/09 08:29:20;;;;;;;9.48;4.28;;;;;;;;;;5000144;28;20413;-65
2022/04/09 08:31:47;;;;;;;10.80;4.30;;;;;;;;;;4998843;28;20049;-65
2022/04/09 08:34:15;;;;;;;12.23;5.75;;;;;;;;;;4999243;28;20055;-65
2022/04/09 08:36:42;;;;;;;10.02;4.47;;;;;;;;;;5002324;28;20141;-67
2022/04/09 08:39:08;;;;;;;7.88;5.05;;;;;;;;;;5002266;28;20057;-66
2022/04/09 08:41:36;;;;;;;6.13;3.95;;;;;;;;;;5001250;28;20054;-65
2022/04/09 08:44:03;;;;;;;7.50;4.53;;;;;;;;;;4996711;28;20069;-66
2022/04/09 08:46:30;;;;;;;10.40;3.90;;;;;;;;;;4998996;28;20050;-65
2022/04/09 08:48:58;;;;;;;10.20;5.00;;;;;;;;;;4998472;28;20543;-65
2022/04/09 08:51:25;;;;;;;7.03;4.75;;;;;;;;;;4998502;28;20048;-65
2022/04/09 08:53:58;;;;;;;9.32;4.90;;;;;;;;;;4999818;28;20034;-65
2022/04/09 08:56:25;;;;;;;13.65;5.97;;;;;;;;;;4998071;28;20046;-65
2022/04/09 08:58:51;;;;;;;8.40;4.95;;;;;;;;;;4998158;28;20062;-66
2022/04/09 09:01:21;;;;;;;10.48;4.00;;;;;;;;;;4997898;28;20050;-65
2022/04/09 09:03:48;;;;;;;15.63;5.10;;;;;;;;;;4998366;28;20046;-65
2022/04/09 09:06:31;;;;;;;7.93;4.25;;;;;;;;;;4997753;28;20050;-65
2022/04/09 09:09:00;;;;;;;11.40;4.10;;;;;;;;;;5000612;28;20046;-65
2022/04/09 09:11:28;;;;;;;11.52;4.28;;;;;;;;;;4998279;28;20062;-65
2022/04/09 09:13:57;;;;;;;7.38;3.80;;;;;;;;;;4995028;28;20497;-65
2022/04/09 09:16:28;;;;;;;8.70;3.83;;;;;;;;;;5013192;28;20046;-65
2022/04/09 09:18:57;;;;;;;9.20;4.18;;;;;;;;;;4999288;28;20053;-66
2022/04/09 09:21:26;;;;;;;9.02;3.72;;;;;;;;;;4984808;28;20439;-70
2022/04/09 09:24:22;;;;;;;7.35;3.33;;;;;;;;;;4996255;28;20141;-69
2022/04/09 09:26:59;;;;;;;;;;;;;;;;;;5011894;28;20153;-65
2022/04/09 09:29:28;;;;;;;5.72;3.10;;;;;;;;;;4995904;28;19945;-67
2022/04/09 09:31:59;;;;;;;6.70;3.50;;;;;;;;;;5004888;28;20610;-66
2022/04/09 09:34:26;;;;;;;9.85;4.15;;;;;;;;;;4999037;28;20058;-68
2022/04/09 09:36:53;;;;;;;7.88;3.55;;;;;;;;;;4999805;28;20046;-67
2022/04/09 09:39:21;;;;;;;4.70;3.47;;;;;;;;;;5002518;28;20058;-69
2022/04/09 09:41:54;;;;;;;6.85;3.33;;;;;;;;;;4998062;28;20046;-69
2022/04/09 09:44:25;;;;;;;13.05;3.72;;;;;;;;;;4996859;28;20050;-67
2022/04/09 09:46:53;;;;;;;8.77;3.03;;;;;;;;;;5013018;28;20050;-66
2022/04/09 09:49:25;;;;;;;7.28;2.97;;;;;;;;;;4998448;28;20428;-67
2022/04/09 09:52:03;;;;;;;7.32;3.75;;;;;;;;;;5002323;28;20050;-68
2022/04/09 09:54:30;;;;;;;9.25;2.90;;;;;;;;;;4999353;28;20054;-70
2022/04/09 09:56:57;;;;;;;9.27;3.03;;;;;;;;;;4998561;28;20053;-68
2022/04/09 09:59:26;;;;;;;6.38;2.85;;;;;;;;;;4997198;28;20050;-67
2022/04/09 10:01:54;;;;;;;7.30;2.70;;;;;;;;;;5010680;28;20046;-71
2022/04/09 10:04:22;;;;;;;7.63;2.78;;;;;;;;;;5011877;28;20050;-66
2022/04/09 10:06:48;;;;;;;18.75;3.28;;;;;;;;;;4998726;28;20072;-69
2022/04/09 10:09:16;;;;;;;8.75;3.53;;;;;;;;;;5016448;28;20050;-69
2022/04/09 10:11:47;;;;;;;8.48;2.55;;;;;;;;;;4999444;28;20148;-71
2022/04/09 10:14:17;;;;;;;6.72;3.05;;;;;;;;;;4998047;28;20046;-69
2022/04/09 10:16:44;;;;;;;5.72;3.05;;;;;;;;;;5001602;28;20056;-68
2022/04/09 10:19:11;;;;;;;8.88;2.92;;;;;;;;;;5017472;28;20160;-70
2022/04/09 10:21:39;;;;;;;7.78;3.60;;;;;;;;;;5003628;28;20050;-70
2022/04/09 10:24:15;;;;;;;7.20;2.70;;;;;;;;;;5015787;28;20045;-70
2022/04/09 10:26:43;;;;;;;7.93;4.00;;;;;;;;;;4999746;28;20085;-67
2022/04/09 10:29:10;;;;;;;6.60;3.17;;;;;;;;;;5019161;28;20046;-67
2022/04/09 10:31:38;;;;;;;3.90;2.15;;;;;;;;;;5001484;28;20046;-67
2022/04/09 10:34:07;;;;;;;6.82;2.47;;;;;;;;;;4953928;28;20046;-69
2022/04/09 10:36:43;;;;;;;8.88;2.50;;;;;;;;;;4997403;28;20461;-66
2022/04/09 10:39:41;;;;;;;4.72;2.50;;;;;;;;;;4980878;28;20058;-65
2022/04/09 10:42:09;;;;;;;3.05;1.48;;;;;;;;;;4978615;28;20058;-65
2022/04/09 10:44:42;;;;;;;7.00;2.30;;;;;;;;;;4997651;28;20058;-64
2022/04/09 10:47:13;;;;;;;7.82;2.35;;;;;;;;;;4981163;28;20371;-65
2022/04/09 10:50:00;;;;;;;6.28;2.95;;;;;;;;;;4977891;28;20430;-66
2022/04/09 10:52:31;;;;;;;6.50;2.30;;;;;;;;;;4982289;28;20054;-65
2022/04/09 10:55:10;;;;;;;7.72;2.03;;;;;;;;;;4994515;28;20046;-65
2022/04/09 10:57:44;;;;;;;6.65;1.88;;;;;;;;;;4981187;28;20072;-65
2022/04/09 11:00:23;;;;;;;7.45;2.10;;;;;;;;;;4995270;28;20580;-65
2022/04/09 11:03:12;;;;;;;6.22;3.03;;;;;;;;;;4981080;28;20040;-65
2022/04/09 11:05:41;;;;;;;6.25;2.40;;;;;;;;;;4980720;28;20141;-65
2022/04/09 11:08:19;;;;;;;10.68;2.60;;;;;;;;;;4960559;28;20458;-67
2022/04/09 11:10:45;;;;;;;6.78;2.38;;;;;;;;;;4980402;28;20054;-66
2022/04/09 11:13:12;;;;;;;9.02;3.17;;;;;;;;;;4994454;28;20161;-69
2022/04/09 11:15:40;;;;;;;16.02;2.42;;;;;;;;;;4984161;28;20050;-70
2022/04/09 11:18:07;;;;;;;4.22;2.30;;;;;;;;;;4966389;28;20089;-69
2022/04/09 11:20:36;;;;;;;5.50;2.45;;;;;;;;;;4989971;28;20046;-70
2022/04/09 11:23:12;;;;;;;5.68;1.90;;;;;;;;;;4984287;28;20413;-70
2022/04/09 11:25:43;;;;;;;8.15;3.00;;;;;;;;;;4969112;28;20047;-70
2022/04/09 11:28:17;;;;;;;8.43;2.33;;;;;;;;;;4984724;28;20042;-68
2022/04/09 11:31:10;;;;;;;5.85;2.38;;;;;;;;;;4986365;28;20057;-70
2022/04/09 11:33:38;;;;;;;6.72;2.42;;;;;;;;;;4982253;28;20329;-67
2022/04/09 11:36:05;;;;;;;6.00;2.65;;;;;;;;;;4981016;28;20070;-66
2022/04/09 11:38:33;;;;;;;4.55;2.17;;;;;;;;;;4981830;28;20508;-67
2022/04/09 11:40:59;;;;;;;8.23;3.42;;;;;;;;;;4979090;28;20058;-67
2022/04/09 11:43:27;;;;;;;7.47;2.90;;;;;;;;;;4984851;28;20058;-69
2022/04/09 11:46:03;;;;;;;5.47;2.63;;;;;;;;;;4978769;28;20105;-67
2022/04/09 11:48:30;;;;;;;5.20;2.60;;;;;;;;;;4980611;28;20567;-66
2022/04/09 11:50:57;;;;;;;3.47;2.63;;;;;;;;;;4980306;28;20070;-66
2022/04/09 11:53:24;;;;;;;6.70;2.72;;;;;;;;;;4979368;28;20422;-67
2022/04/09 11:55:59;;;;;;;55.85;24.60;;;;;;;;;;4996800;28;20051;-66
2022/04/09 11:58:32;;;;;;;7.32;2.78;;;;;;;;;;4999729;28;20210;-66
2022/04/09 12:01:00;;;;;;;5.30;2.00;;;;;;;;;;4990242;28;20412;-65
2022/04/09 12:03:26;;;;;;;6.75;2.17;;;;;;;;;;4997075;28;20133;-66
2022/04/09 12:05:53;;;;;;;5.78;2.70;;;;;;;;;;4981644;28;20051;-66
2022/04/09 12:08:23;;;;;;;8.15;2.60;;;;;;;;;;4979285;28;20047;-66
2022/04/09 12:10:57;;;;;;;6.97;1.92;;;;;;;;;;4966999;28;20108;-67
2022/04/09 12:13:33;;;;;;;5.57;2.40;;;;;;;;;;4993213;28;20049;-67
2022/04/09 12:16:03;;;;;;;5.15;1.90;;;;;;;;;;4983207;28;20054;-69
2022/04/09 12:18:34;;;;;;;6.75;3.08;;;;;;;;;;4991759;28;20061;-69
2022/04/09 12:21:20;;;;;;;7.47;2.55;;;;;;;;;;4963826;28;20490;-69
2022/04/09 12:24:01;;;;;;;4.60;1.90;;;;;;;;;;4979847;28;20051;-68
2022/04/09 12:26:29;;;;;;;9.02;2.20;;;;;;;;;;4995859;28;20633;-70
2022/04/09 12:29:16;;;;;;;3.63;1.80;;;;;;;;;;4982081;28;20130;-68
2022/04/09 12:31:46;;;;;;;10.75;2.75;;;;;;;;;;4982300;28;20900;-70
2022/04/09 12:34:12;;;;;;;8.98;2.58;;;;;;;;;;4963053;28;20047;-69
2022/04/09 12:36:58;;;;;;;5.57;2.35;;;;;;;;;;4995932;28;20054;-70
2022/04/09 12:39:29;;;;;;;8.23;2.35;;;;;;;;;;4978279;28;20050;-70
2022/04/09 12:41:56;;;;;;;9.10;2.40;;;;;;;;;;4961608;28;20055;-70
2022/04/09 12:44:26;;;;;;;4.97;2.08;;;;;;;;;;4981769;28;20042;-70
2022/04/09 12:46:54;;;;;;;4.03;2.08;;;;;;;;;;4981236;28;20057;-68
2022/04/09 12:49:41;;;;;;;7.35;3.70;;;;;;;;;;4997353;28;20053;-69
2022/04/09 12:52:09;;;;;;;4.25;1.67;;;;;;;;;;4981365;28;20070;-68
2022/04/09 12:54:36;;;;;;;5.38;2.20;;;;;;;;;;4980985;28;20134;-69
2022/04/09 12:57:10;;;;;;;3.15;1.40;;;;;;;;;;4963048;28;20054;-70
2022/04/09 12:59:38;;;;;;;5.90;2.20;;;;;;;;;;4979794;28;20133;-69
2022/04/09 13:02:06;;;;;;;4.38;1.73;;;;;;;;;;4981930;28;20042;-69
2022/04/09 13:04:33;;;;;;;4.47;1.98;;;;;;;;;;4996165;28;20146;-70
2022/04/09 13:07:00;;;;;;;3.97;1.83;;;;;;;;;;4977658;28;20055;-69
2022/04/09 13:09:27;;;;;;;6.82;2.15;;;;;;;;;;4994755;28;20062;-70
2022/04/09 13:11:54;;;;;;;3.58;1.75;;;;;;;;;;4980402;28;20061;-69
2022/04/09 13:14:20;;;;;;;4.70;1.55;;;;;;;;;;4979213;28;20545;-70
2022/04/09 13:16:48;;;;;;;5.38;1.55;;;;;;;;;;4978373;28;20057;-69
2022/04/09 13:19:15;;;;;;;2.35;1.20;;;;;;;;;;4984256;28;20050;-68
2022/04/09 13:21:42;;;;;;;6.78;1.60;;;;;;;;;;4981619;28;20058;-70
2022/04/09 13:24:08;;;;;;;5.15;1.48;;;;;;;;;;4981764;28;20038;-69
2022/04/09 13:26:35;;;;;;;10.18;2.00;;;;;;;;;;4979784;28;20054;-70
2022/04/09 13:29:02;;;;;;;5.32;1.67;;;;;;;;;;4979098;28;20053;-69
2022/04/09 13:31:31;;;;;;;5.45;1.67;;;;;;;;;;4982474;28;20058;-69
2022/04/09 13:34:00;;;;;;;8.88;1.73;;;;;;;;;;4982380;28;20047;-69
2022/04/09 13:36:27;;;;;;;5.20;2.10;;;;;;;;;;4978609;28;20062;-68
2022/04/09 13:38:54;;;;;;;6.88;1.40;;;;;;;;;;4964018;28;20058;-69
2022/04/09 13:41:40;;;;;;;7.57;2.10;;;;;;;;;;4978767;28;20080;-69
2022/04/09 13:44:07;;;;;;;8.70;3.10;;;;;;;;;;4978116;28;20051;-69
2022/04/09 13:46:34;;;;;;;4.43;1.35;;;;;;;;;;4981779;28;20571;-69
2022/04/09 13:49:01;;;;;;;2.75;1.33;;;;;;;;;;4973775;28;20119;-68
2022/04/09 13:51:27;;;;;;;4.00;1.40;;;;;;;;;;4991706;28;20097;-68
2022/04/09 13:53:55;;;;;;;6.22;1.52;;;;;;;;;;4992450;28;20058;-69
2022/04/09 13:56:22;;;;;;;6.53;1.70;;;;;;;;;;4975058;28;20520;-68
2022/04/09 13:58:49;;;;;;;5.22;2.50;;;;;;;;;;4990514;28;20058;-69
2022/04/09 14:01:15;;;;;;;3.92;1.35;;;;;;;;;;4991096;28;20053;-69
2022/04/09 14:03:42;;;;;;;4.60;1.20;;;;;;;;;;4991356;28;20053;-70
2022/04/09 14:06:09;;;;;;;3.50;1.50;;;;;;;;;;4975224;28;20054;-69
2022/04/09 14:08:36;;;;;;;4.68;1.17;;;;;;;;;;4992304;28;20057;-70
2022/04/09 14:11:03;;;;;;;7.55;1.58;;;;;;;;;;4992215;28;20054;-69
2022/04/09 14:13:30;;;;;;;4.60;1.40;;;;;;;;;;4990627;28;20050;-69
2022/04/09 14:15:57;;;;;;;3.97;1.20;;;;;;;;;;4992458;28;20054;-68
2022/04/09 14:18:24;;;;;;;5.18;1.30;;;;;;;;;;4991192;28;20086;-68
2022/04/09 14:20:50;;;;;;;3.45;1.20;;;;;;;;;;4992077;28;20051;-68
2022/04/09 14:23:22;;;;;;;2.80;1.50;;;;;;;;;;4992305;28;20058;-68
2022/04/09 14:25:49;;;;;;;4.32;1.63;;;;;;;;;;4991878;28;20056;-68
2022/04/09 14:28:16;;;;;;;5.78;1.30;;;;;;;;;;4975282;28;20050;-68
2022/04/09 14:30:44;;;;;;;5.90;2.45;;;;;;;;;;4992040;28;20057;-68
2022/04/09 14:33:10;;;;;;;3.53;1.63;;;;;;;;;;4974806;28;20054;-68
2022/04/09 14:35:37;;;;;;;6.25;1.85;;;;;;;;;;4990946;28;20066;-68
2022/04/09 14:38:04;;;;;;;5.13;1.75;;;;;;;;;;4990879;28;20065;-68
2022/04/09 14:40:30;;;;;;;5.85;2.10;;;;;;;;;;4990973;28;20054;-68
2022/04/09 14:42:57;;;;;;;3.25;1.50;;;;;;;;;;4991731;28;20054;-68